Time;durP1;ratioP1;P1;durP2;ratioP2;P2;SDS_P1;SDS_P2;PMS_P1;PMS_P2;Temp;Humidity;BMP_temperature;BMP_pressure;BME280_temperature;BME280_humidity;BME280_pressure;Samples;Min_cycle;Max_cycle;Signal;HPM_P1;HPM_P2
2022/10/20 00:01:19;;;;;;;24.23;22.67;;;;;;;;;;5116396;28;20202;-78
2022/10/20 00:03:46;;;;;;;23.77;22.17;;;;;;;;;;5116083;28;20450;-79
2022/10/20 00:06:14;;;;;;;23.33;21.90;;;;;;;;;;5116191;28;20198;-78
2022/10/20 00:08:43;;;;;;;23.70;22.03;;;;;;;;;;5116397;28;20452;-80
2022/10/20 00:11:11;;;;;;;23.93;22.03;;;;;;;;;;5115942;28;20454;-79
2022/10/20 00:13:40;;;;;;;24.70;22.63;;;;;;;;;;5115735;27;20493;-78
2022/10/20 00:16:07;;;;;;;25.30;23.70;;;;;;;;;;5116262;28;20509;-79
2022/10/20 00:18:35;;;;;;;23.90;22.40;;;;;;;;;;5116181;28;20949;-79
2022/10/20 00:21:05;;;;;;;24.80;23.10;;;;;;;;;;5115402;28;20450;-78
2022/10/20 00:23:33;;;;;;;24.70;23.00;;;;;;;;;;5116233;28;20461;-78
2022/10/20 00:26:03;;;;;;;25.48;23.65;;;;;;;;;;5116125;28;20205;-79
2022/10/20 00:28:31;;;;;;;25.43;23.43;;;;;;;;;;5116352;28;20203;-78
2022/10/20 00:31:00;;;;;;;26.10;24.20;;;;;;;;;;5115590;28;20444;-79
2022/10/20 00:33:27;;;;;;;25.80;24.10;;;;;;;;;;5115139;27;20478;-79
2022/10/20 00:35:55;;;;;;;25.67;23.77;;;;;;;;;;5115481;28;20480;-79
2022/10/20 00:38:22;;;;;;;26.30;24.50;;;;;;;;;;5115951;28;20579;-79
2022/10/20 00:40:50;;;;;;;26.00;24.30;;;;;;;;;;5115981;28;20425;-78
2022/10/20 00:43:18;;;;;;;25.90;24.10;;;;;;;;;;5115135;27;20894;-80
2022/10/20 00:45:47;;;;;;;25.80;24.20;;;;;;;;;;5115721;28;20414;-79
2022/10/20 00:48:19;;;;;;;24.50;22.70;;;;;;;;;;5115545;28;20202;-79
2022/10/20 00:50:50;;;;;;;25.73;23.90;;;;;;;;;;5115537;28;20418;-79
2022/10/20 00:53:18;;;;;;;26.07;23.90;;;;;;;;;;5114832;28;20446;-79
2022/10/20 00:55:47;;;;;;;25.80;23.80;;;;;;;;;;5115586;28;20479;-78
2022/10/20 00:58:15;;;;;;;25.27;23.47;;;;;;;;;;5115314;28;20422;-79
2022/10/20 01:00:44;;;;;;;25.30;23.20;;;;;;;;;;5114977;28;20458;-78
2022/10/20 01:03:14;;;;;;;24.63;23.10;;;;;;;;;;5114495;28;20442;-78
2022/10/20 01:05:42;;;;;;;25.77;23.97;;;;;;;;;;5115636;28;20414;-79
2022/10/20 01:08:10;;;;;;;25.17;23.47;;;;;;;;;;5114997;27;20437;-79
2022/10/20 01:10:40;;;;;;;25.87;24.27;;;;;;;;;;5114995;28;20425;-79
2022/10/20 01:13:12;;;;;;;24.70;22.77;;;;;;;;;;5113965;28;20531;-79
2022/10/20 01:15:43;;;;;;;26.63;24.53;;;;;;;;;;5115128;28;20471;-78
2022/10/20 01:18:12;;;;;;;27.05;25.02;;;;;;;;;;5115207;28;20426;-79
2022/10/20 01:20:59;;;;;;;26.57;24.77;;;;;;;;;;5114482;28;20232;-78
2022/10/20 01:23:51;;;;;;;25.47;23.73;;;;;;;;;;5114532;27;20490;-80
2022/10/20 01:26:37;;;;;;;25.50;23.80;;;;;;;;;;5114309;28;20422;-79
2022/10/20 01:29:09;;;;;;;25.13;23.33;;;;;;;;;;5115147;28;20463;-79
2022/10/20 01:31:40;;;;;;;26.23;24.43;;;;;;;;;;5114593;28;21154;-79
2022/10/20 01:34:10;;;;;;;26.13;24.23;;;;;;;;;;5114067;27;20454;-78
2022/10/20 01:36:39;;;;;;;25.50;23.90;;;;;;;;;;5114741;28;20228;-80
2022/10/20 01:39:09;;;;;;;26.10;24.40;;;;;;;;;;5115028;28;20456;-77
2022/10/20 01:41:39;;;;;;;25.03;23.23;;;;;;;;;;5114328;28;20934;-80
2022/10/20 01:44:10;;;;;;;26.77;24.88;;;;;;;;;;5114029;27;20449;-79
2022/10/20 01:46:38;;;;;;;27.13;24.98;;;;;;;;;;5114530;28;20186;-78
2022/10/20 01:49:07;;;;;;;25.00;23.40;;;;;;;;;;5114999;28;20224;-78
2022/10/20 01:51:34;;;;;;;24.93;23.23;;;;;;;;;;5114374;28;20803;-79
2022/10/20 01:54:02;;;;;;;25.27;23.47;;;;;;;;;;5114742;28;20450;-79
2022/10/20 01:56:33;;;;;;;26.20;24.20;;;;;;;;;;5114803;28;20453;-78
2022/10/20 01:59:16;;;;;;;26.37;24.67;;;;;;;;;;5114579;28;20440;-79
2022/10/20 02:01:50;;;;;;;26.43;24.47;;;;;;;;;;5113081;27;20498;-79
2022/10/20 02:04:21;;;;;;;26.00;24.20;;;;;;;;;;5113699;28;20459;-78
2022/10/20 02:06:52;;;;;;;24.90;23.07;;;;;;;;;;5113144;28;20455;-78
2022/10/20 02:09:24;;;;;;;25.60;23.80;;;;;;;;;;5113482;28;20803;-80
2022/10/20 02:11:54;;;;;;;25.57;23.87;;;;;;;;;;5113064;27;20406;-79
2022/10/20 02:14:24;;;;;;;26.10;24.40;;;;;;;;;;5113456;28;20483;-78
2022/10/20 02:16:54;;;;;;;25.50;23.87;;;;;;;;;;5113430;28;20975;-78
2022/10/20 02:19:23;;;;;;;25.43;23.60;;;;;;;;;;5113553;28;20458;-78
2022/10/20 02:21:52;;;;;;;24.50;22.80;;;;;;;;;;5113419;28;20450;-77
2022/10/20 02:24:20;;;;;;;23.80;21.73;;;;;;;;;;5112942;27;20880;-79
2022/10/20 02:26:48;;;;;;;24.37;22.73;;;;;;;;;;5113480;28;20435;-78
2022/10/20 02:29:17;;;;;;;25.93;24.00;;;;;;;;;;5113568;28;20428;-79
2022/10/20 02:31:46;;;;;;;25.40;23.70;;;;;;;;;;5114245;28;20426;-79
2022/10/20 02:34:14;;;;;;;25.73;24.03;;;;;;;;;;5117397;28;20445;-78
2022/10/20 02:36:43;;;;;;;26.33;24.47;;;;;;;;;;5117475;28;20926;-79
2022/10/20 02:39:10;;;;;;;26.47;24.50;;;;;;;;;;5117060;27;20474;-78
2022/10/20 02:41:38;;;;;;;25.47;23.57;;;;;;;;;;5116893;27;20788;-78
2022/10/20 02:44:05;;;;;;;24.50;22.90;;;;;;;;;;5116408;28;20474;-79
2022/10/20 02:46:33;;;;;;;24.73;23.23;;;;;;;;;;5117327;28;20465;-79
2022/10/20 02:49:01;;;;;;;25.93;24.20;;;;;;;;;;5116460;27;20470;-77
2022/10/20 02:51:29;;;;;;;27.13;25.33;;;;;;;;;;5116678;28;20453;-79
2022/10/20 02:53:56;;;;;;;25.87;24.07;;;;;;;;;;5116538;28;20232;-78
2022/10/20 02:56:23;;;;;;;25.47;23.60;;;;;;;;;;5116574;28;21037;-79
2022/10/20 02:58:50;;;;;;;25.37;23.67;;;;;;;;;;5116461;27;20442;-79
2022/10/20 03:01:18;;;;;;;25.20;23.60;;;;;;;;;;5115979;27;21196;-79
2022/10/20 03:03:45;;;;;;;25.33;23.70;;;;;;;;;;5116709;28;20464;-79
2022/10/20 03:06:15;;;;;;;25.80;24.00;;;;;;;;;;5117137;28;20455;-79
2022/10/20 03:08:43;;;;;;;26.17;24.40;;;;;;;;;;5116504;27;20455;-80
2022/10/20 03:11:10;;;;;;;26.37;24.67;;;;;;;;;;5116597;28;20553;-78
2022/10/20 03:13:37;;;;;;;24.88;23.33;;;;;;;;;;5116599;28;20485;-79
2022/10/20 03:16:05;;;;;;;26.17;24.27;;;;;;;;;;5116607;28;20691;-78
2022/10/20 03:18:32;;;;;;;26.20;24.33;;;;;;;;;;5116835;28;20450;-78
2022/10/20 03:20:59;;;;;;;25.13;23.30;;;;;;;;;;5116659;28;20790;-79
2022/10/20 03:23:28;;;;;;;26.50;24.53;;;;;;;;;;5116081;27;20578;-80
2022/10/20 03:26:01;;;;;;;25.90;24.20;;;;;;;;;;5116697;28;20421;-80
2022/10/20 03:28:29;;;;;;;25.42;23.67;;;;;;;;;;5116464;28;20440;-78
2022/10/20 03:30:56;;;;;;;24.95;23.20;;;;;;;;;;5116095;28;20620;-79
2022/10/20 03:33:23;;;;;;;25.50;23.90;;;;;;;;;;5116896;28;20228;-78
2022/10/20 03:35:51;;;;;;;25.07;23.47;;;;;;;;;;5116488;28;20457;-78
2022/10/20 03:38:18;;;;;;;26.17;24.23;;;;;;;;;;5116723;28;20443;-78
2022/10/20 03:40:47;;;;;;;25.47;23.77;;;;;;;;;;5115743;27;20434;-79
2022/10/20 03:43:15;;;;;;;25.65;23.95;;;;;;;;;;5115183;28;20454;-79
2022/10/20 03:45:42;;;;;;;25.97;24.23;;;;;;;;;;5116003;28;20685;-79
2022/10/20 03:48:10;;;;;;;26.30;24.50;;;;;;;;;;5116426;28;20462;-78
2022/10/20 03:50:38;;;;;;;25.80;24.15;;;;;;;;;;5115894;28;20819;-77
2022/10/20 03:53:05;;;;;;;25.63;23.93;;;;;;;;;;5115302;27;20251;-78
2022/10/20 03:55:33;;;;;;;26.30;24.23;;;;;;;;;;5116194;28;20462;-79
2022/10/20 03:58:01;;;;;;;25.50;23.70;;;;;;;;;;5115871;28;20187;-79
2022/10/20 04:00:29;;;;;;;25.43;23.63;;;;;;;;;;5116210;28;20227;-79
2022/10/20 04:02:56;;;;;;;23.20;21.63;;;;;;;;;;5115518;27;20448;-78
2022/10/20 04:05:24;;;;;;;25.40;23.80;;;;;;;;;;5115855;28;20413;-78
2022/10/20 04:07:51;;;;;;;25.73;24.03;;;;;;;;;;5115658;28;20202;-79
2022/10/20 04:10:18;;;;;;;25.67;23.90;;;;;;;;;;5115605;28;20450;-79
2022/10/20 04:12:46;;;;;;;24.50;23.00;;;;;;;;;;5114893;28;20478;-78
2022/10/20 04:15:17;;;;;;;25.80;23.90;;;;;;;;;;5115326;27;20468;-79
2022/10/20 04:17:44;;;;;;;25.33;23.63;;;;;;;;;;5115612;28;20490;-78
2022/10/20 04:20:12;;;;;;;25.63;23.53;;;;;;;;;;5115615;28;20259;-79
2022/10/20 04:22:39;;;;;;;25.00;23.48;;;;;;;;;;5114931;28;20470;-79
2022/10/20 04:25:07;;;;;;;25.98;24.08;;;;;;;;;;5115420;27;20688;-78
2022/10/20 04:27:34;;;;;;;25.03;23.07;;;;;;;;;;5115379;28;20691;-79
2022/10/20 04:30:01;;;;;;;25.43;23.83;;;;;;;;;;5115913;28;20452;-79
2022/10/20 04:32:30;;;;;;;25.27;23.77;;;;;;;;;;5115113;28;20458;-79
2022/10/20 04:34:58;;;;;;;25.90;24.10;;;;;;;;;;5114978;27;20440;-79
2022/10/20 04:37:25;;;;;;;25.73;24.03;;;;;;;;;;5114964;28;20441;-79
2022/10/20 04:39:52;;;;;;;24.30;22.77;;;;;;;;;;5114873;28;20967;-79
2022/10/20 04:42:20;;;;;;;25.73;24.20;;;;;;;;;;5114297;28;20440;-78
2022/10/20 04:44:47;;;;;;;23.53;22.00;;;;;;;;;;5115355;28;20202;-79
2022/10/20 04:47:14;;;;;;;26.20;23.70;;;;;;;;;;5114585;27;20825;-79
2022/10/20 04:49:44;;;;;;;23.70;22.30;;;;;;;;;;5115429;28;20450;-80
2022/10/20 04:52:11;;;;;;;24.95;23.25;;;;;;;;;;5114272;28;20922;-78
2022/10/20 04:54:38;;;;;;;22.52;21.13;;;;;;;;;;5114254;28;20198;-79
2022/10/20 04:57:05;;;;;;;25.50;23.27;;;;;;;;;;5113656;27;20229;-78
2022/10/20 04:59:33;;;;;;;24.67;22.87;;;;;;;;;;5115127;28;20835;-78
2022/10/20 05:02:00;;;;;;;25.02;23.02;;;;;;;;;;5113801;28;20763;-78
2022/10/20 05:04:28;;;;;;;24.92;23.25;;;;;;;;;;5114244;28;20234;-78
2022/10/20 05:06:56;;;;;;;24.73;22.90;;;;;;;;;;5114424;28;20563;-78
2022/10/20 05:09:23;;;;;;;25.97;23.33;;;;;;;;;;5113815;27;20449;-78
2022/10/20 05:11:52;;;;;;;25.65;23.95;;;;;;;;;;5113750;28;20912;-78
2022/10/20 05:14:19;;;;;;;24.88;23.30;;;;;;;;;;5113745;28;20320;-79
2022/10/20 05:16:46;;;;;;;26.37;23.90;;;;;;;;;;5114269;28;20225;-80
2022/10/20 05:19:14;;;;;;;24.63;22.83;;;;;;;;;;5114090;28;20415;-78
2022/10/20 05:21:41;;;;;;;25.70;23.90;;;;;;;;;;5113897;28;20766;-77
2022/10/20 05:24:13;;;;;;;24.75;23.15;;;;;;;;;;5113512;27;20479;-78
2022/10/20 05:26:40;;;;;;;25.70;23.98;;;;;;;;;;5114148;28;20196;-78
2022/10/20 05:29:08;;;;;;;25.10;23.50;;;;;;;;;;5113885;28;20216;-77
2022/10/20 05:31:37;;;;;;;25.33;23.73;;;;;;;;;;5113559;28;20426;-79
2022/10/20 05:34:04;;;;;;;22.93;21.63;;;;;;;;;;5113370;27;20465;-78
2022/10/20 05:36:31;;;;;;;24.60;22.80;;;;;;;;;;5113594;28;21074;-78
2022/10/20 05:38:59;;;;;;;26.10;23.70;;;;;;;;;;5113610;28;20813;-77
2022/10/20 05:41:28;;;;;;;25.13;23.63;;;;;;;;;;5113272;28;20415;-79
2022/10/20 05:43:57;;;;;;;25.43;23.70;;;;;;;;;;5113169;27;20504;-79
2022/10/20 05:46:25;;;;;;;24.75;23.15;;;;;;;;;;5113750;28;20425;-77
2022/10/20 05:48:53;;;;;;;24.25;22.65;;;;;;;;;;5114039;28;20205;-79
2022/10/20 05:51:23;;;;;;;24.87;23.20;;;;;;;;;;5113261;28;20233;-78
2022/10/20 05:53:51;;;;;;;24.03;22.33;;;;;;;;;;5114057;28;20470;-78
2022/10/20 05:56:18;;;;;;;23.30;21.87;;;;;;;;;;5113565;28;20483;-79
2022/10/20 05:58:47;;;;;;;23.98;22.05;;;;;;;;;;5113737;28;20433;-79
2022/10/20 06:01:18;;;;;;;24.37;22.67;;;;;;;;;;5112896;27;20450;-78
2022/10/20 06:03:47;;;;;;;24.50;22.87;;;;;;;;;;5114132;28;20510;-79
2022/10/20 06:06:14;;;;;;;24.57;22.77;;;;;;;;;;5114433;28;20454;-82
2022/10/20 06:08:42;;;;;;;24.47;22.63;;;;;;;;;;5117801;28;20450;-79
2022/10/20 06:11:10;;;;;;;22.60;21.20;;;;;;;;;;5117529;27;20441;-79
2022/10/20 06:13:37;;;;;;;23.93;22.43;;;;;;;;;;5118166;28;20807;-78
2022/10/20 06:16:07;;;;;;;23.50;22.00;;;;;;;;;;5117391;28;20425;-78
2022/10/20 06:18:37;;;;;;;24.70;23.10;;;;;;;;;;5118024;28;20425;-79
2022/10/20 06:21:05;;;;;;;24.90;23.03;;;;;;;;;;5117971;27;20447;-78
2022/10/20 06:23:32;;;;;;;23.77;22.17;;;;;;;;;;5117399;27;20491;-79
2022/10/20 06:26:02;;;;;;;24.73;23.13;;;;;;;;;;5116798;28;20927;-76
2022/10/20 06:28:30;;;;;;;25.10;23.47;;;;;;;;;;5115675;28;20779;-78
2022/10/20 06:30:57;;;;;;;24.85;23.25;;;;;;;;;;5116070;28;20849;-77
2022/10/20 06:33:26;;;;;;;24.50;22.97;;;;;;;;;;5116925;27;20222;-78
2022/10/20 06:35:54;;;;;;;24.33;22.83;;;;;;;;;;5117400;28;20422;-78
2022/10/20 06:38:21;;;;;;;25.87;23.90;;;;;;;;;;5116634;28;20457;-77
2022/10/20 06:40:48;;;;;;;24.80;23.10;;;;;;;;;;5116437;28;20935;-77
2022/10/20 06:43:15;;;;;;;25.40;23.60;;;;;;;;;;5114652;27;20887;-77
2022/10/20 06:45:43;;;;;;;26.13;24.30;;;;;;;;;;5116419;28;20796;-76
2022/10/20 06:48:10;;;;;;;25.00;23.33;;;;;;;;;;5116415;28;20418;-76
2022/10/20 06:50:39;;;;;;;24.63;23.07;;;;;;;;;;5115882;28;20205;-76
2022/10/20 06:53:06;;;;;;;24.77;23.13;;;;;;;;;;5115567;28;20871;-76
2022/10/20 06:55:33;;;;;;;25.10;23.50;;;;;;;;;;5116231;28;20476;-76
2022/10/20 06:58:01;;;;;;;25.90;23.87;;;;;;;;;;5116318;28;20449;-77
2022/10/20 07:00:28;;;;;;;23.77;22.37;;;;;;;;;;5115351;27;20438;-77
2022/10/20 07:02:55;;;;;;;24.87;23.37;;;;;;;;;;5115059;28;20463;-77
2022/10/20 07:05:23;;;;;;;24.30;22.70;;;;;;;;;;5115725;28;20764;-76
2022/10/20 07:07:54;;;;;;;25.10;23.20;;;;;;;;;;5115917;28;20414;-77
2022/10/20 07:10:21;;;;;;;24.27;22.60;;;;;;;;;;5115365;27;20432;-77
2022/10/20 07:12:49;;;;;;;24.80;23.27;;;;;;;;;;5114901;28;20449;-77
2022/10/20 07:15:16;;;;;;;25.10;23.20;;;;;;;;;;5116029;28;20449;-76
2022/10/20 07:17:44;;;;;;;23.90;22.30;;;;;;;;;;5113489;28;20454;-77
2022/10/20 07:20:11;;;;;;;25.37;23.47;;;;;;;;;;5115124;28;20437;-76
2022/10/20 07:22:39;;;;;;;24.90;23.40;;;;;;;;;;5114557;27;20454;-76
2022/10/20 07:25:08;;;;;;;25.43;23.43;;;;;;;;;;5115884;28;20429;-77
2022/10/20 07:27:36;;;;;;;24.67;23.07;;;;;;;;;;5115312;28;20429;-77
2022/10/20 07:30:04;;;;;;;25.97;23.50;;;;;;;;;;5115314;28;20434;-77
2022/10/20 07:32:32;;;;;;;22.63;21.23;;;;;;;;;;5114534;27;20876;-77
2022/10/20 07:34:59;;;;;;;24.30;22.80;;;;;;;;;;5115242;28;20427;-76
2022/10/20 07:37:26;;;;;;;25.73;23.87;;;;;;;;;;5115089;28;20457;-77
2022/10/20 07:39:54;;;;;;;26.30;24.40;;;;;;;;;;5116324;28;20449;-86
2022/10/20 07:42:22;;;;;;;24.90;23.10;;;;;;;;;;5135737;27;20470;-80
2022/10/20 07:44:51;;;;;;;25.13;23.20;;;;;;;;;;5137667;27;20452;-90
2022/10/20 07:47:18;;;;;;;23.97;22.43;;;;;;;;;;5137071;27;20478;-77
2022/10/20 07:49:46;;;;;;;25.00;23.40;;;;;;;;;;5136489;27;20457;-77
2022/10/20 07:52:15;;;;;;;22.23;20.83;;;;;;;;;;5135756;27;20424;-83
2022/10/20 07:54:42;;;;;;;25.67;23.77;;;;;;;;;;5136193;27;20470;-77
2022/10/20 07:57:09;;;;;;;24.47;22.77;;;;;;;;;;5135252;27;20866;-77
2022/10/20 07:59:38;;;;;;;25.33;23.63;;;;;;;;;;5135424;27;20425;-77
2022/10/20 08:02:06;;;;;;;25.87;23.97;;;;;;;;;;5134749;27;20428;-76
2022/10/20 08:04:33;;;;;;;26.17;24.57;;;;;;;;;;5134624;27;20486;-77
2022/10/20 08:07:00;;;;;;;25.80;24.10;;;;;;;;;;5135491;27;20408;-76
2022/10/20 08:09:28;;;;;;;26.10;24.40;;;;;;;;;;5135199;27;20447;-77
2022/10/20 08:11:55;;;;;;;23.00;21.60;;;;;;;;;;5134357;27;20450;-77
2022/10/20 08:14:22;;;;;;;26.57;24.77;;;;;;;;;;5134350;27;20486;-77
2022/10/20 08:16:51;;;;;;;26.23;24.50;;;;;;;;;;5135767;27;20417;-83
2022/10/20 08:19:18;;;;;;;26.37;24.63;;;;;;;;;;5139865;27;20943;-85
2022/10/20 08:21:46;;;;;;;22.37;21.00;;;;;;;;;;5140458;27;20421;-84
2022/10/20 08:24:13;;;;;;;24.73;22.83;;;;;;;;;;5139628;27;20480;-85
2022/10/20 08:26:40;;;;;;;24.37;22.77;;;;;;;;;;5139736;27;20954;-86
2022/10/20 08:29:09;;;;;;;26.70;24.80;;;;;;;;;;5139686;27;20402;-86
2022/10/20 08:31:36;;;;;;;25.50;23.70;;;;;;;;;;5138069;27;20410;-84
2022/10/20 08:34:06;;;;;;;23.77;22.13;;;;;;;;;;5137280;27;20467;-84
2022/10/20 08:36:36;;;;;;;25.23;23.53;;;;;;;;;;5137241;27;20464;-77
2022/10/20 08:39:03;;;;;;;25.53;23.73;;;;;;;;;;5135442;27;20565;-79
2022/10/20 08:41:32;;;;;;;24.90;23.20;;;;;;;;;;5134041;27;20410;-77
2022/10/20 08:44:00;;;;;;;24.83;23.10;;;;;;;;;;5134382;27;20513;-78
2022/10/20 08:46:29;;;;;;;26.00;24.30;;;;;;;;;;5138153;27;20431;-81
2022/10/20 08:48:57;;;;;;;25.83;24.13;;;;;;;;;;5140084;27;20443;-80
2022/10/20 08:51:28;;;;;;;24.43;22.83;;;;;;;;;;5139921;27;20450;-90
2022/10/20 08:53:57;;;;;;;26.33;24.27;;;;;;;;;;5140349;27;20459;-82
2022/10/20 08:56:26;;;;;;;26.17;24.37;;;;;;;;;;5142343;27;20474;-82
2022/10/20 08:58:53;;;;;;;25.50;23.80;;;;;;;;;;5142326;27;20460;-82
2022/10/20 09:01:22;;;;;;;24.03;22.27;;;;;;;;;;5140697;27;20436;-82
2022/10/20 09:03:51;;;;;;;25.03;23.27;;;;;;;;;;5141252;27;20829;-82
2022/10/20 09:06:19;;;;;;;23.27;21.77;;;;;;;;;;5140983;27;20421;-82
2022/10/20 09:08:48;;;;;;;24.90;23.13;;;;;;;;;;5141407;27;20410;-82
2022/10/20 09:11:17;;;;;;;24.43;22.93;;;;;;;;;;5140345;27;20488;-82
2022/10/20 09:13:45;;;;;;;25.50;23.90;;;;;;;;;;5140137;27;20472;-82
2022/10/20 09:16:14;;;;;;;25.27;23.73;;;;;;;;;;5141722;27;20425;-83
2022/10/20 09:18:42;;;;;;;25.40;23.67;;;;;;;;;;5142412;27;20445;-82
2022/10/20 09:21:13;;;;;;;25.27;23.17;;;;;;;;;;5140711;27;20438;-83
2022/10/20 09:23:42;;;;;;;25.40;23.80;;;;;;;;;;5139787;27;20449;-82
2022/10/20 09:26:14;;;;;;;22.87;21.37;;;;;;;;;;5140126;27;20789;-87
2022/10/20 09:28:41;;;;;;;25.93;23.90;;;;;;;;;;5140109;27;20784;-85
2022/10/20 09:31:21;;;;;;;25.90;24.00;;;;;;;;;;5138288;27;20467;-83
2022/10/20 09:33:48;;;;;;;24.60;23.00;;;;;;;;;;5139507;27;20467;-84
2022/10/20 09:36:18;;;;;;;25.10;23.40;;;;;;;;;;5140328;27;20413;-84
2022/10/20 09:38:47;;;;;;;25.10;23.40;;;;;;;;;;5139826;28;20477;-85
2022/10/20 09:41:18;;;;;;;23.93;22.43;;;;;;;;;;5138751;27;20447;-85
2022/10/20 09:43:49;;;;;;;24.87;23.27;;;;;;;;;;5139224;27;20491;-84
2022/10/20 09:46:19;;;;;;;25.83;23.90;;;;;;;;;;5140425;27;20457;-84
2022/10/20 09:48:47;;;;;;;24.20;22.70;;;;;;;;;;5140691;27;20469;-83
2022/10/20 09:51:16;;;;;;;24.17;22.60;;;;;;;;;;5140441;28;20577;-84
2022/10/20 09:53:51;;;;;;;24.70;23.20;;;;;;;;;;5139587;27;20480;-83
2022/10/20 09:56:25;;;;;;;25.10;23.60;;;;;;;;;;5139876;28;20432;-83
2022/10/20 09:58:53;;;;;;;25.50;23.90;;;;;;;;;;5138432;27;20490;-84
2022/10/20 10:01:20;;;;;;;25.30;23.60;;;;;;;;;;5137337;28;20478;-84
2022/10/20 10:03:50;;;;;;;24.90;23.30;;;;;;;;;;5138221;28;20471;-83
2022/10/20 10:06:22;;;;;;;25.63;24.03;;;;;;;;;;5137973;27;20459;-83
2022/10/20 10:08:49;;;;;;;26.33;24.40;;;;;;;;;;5138611;28;20772;-83
2022/10/20 10:11:18;;;;;;;23.07;21.77;;;;;;;;;;5137419;27;20418;-83
2022/10/20 10:13:48;;;;;;;25.73;23.93;;;;;;;;;;5137073;27;20502;-83
2022/10/20 10:16:17;;;;;;;26.10;24.50;;;;;;;;;;5137856;27;20453;-84
2022/10/20 10:18:46;;;;;;;25.93;24.23;;;;;;;;;;5137325;28;20953;-84
2022/10/20 10:21:16;;;;;;;24.03;22.63;;;;;;;;;;5137069;28;20446;-83
2022/10/20 10:23:51;;;;;;;26.50;24.90;;;;;;;;;;5137422;28;20477;-84
2022/10/20 10:26:35;;;;;;;25.37;23.63;;;;;;;;;;5138031;28;20897;-83
2022/10/20 10:29:05;;;;;;;24.90;23.30;;;;;;;;;;5136949;27;20483;-83
2022/10/20 10:31:33;;;;;;;25.20;23.57;;;;;;;;;;5137502;28;20820;-83
2022/10/20 10:34:22;;;;;;;25.27;23.57;;;;;;;;;;5137225;28;20440;-83
2022/10/20 10:36:49;;;;;;;26.43;24.73;;;;;;;;;;5137744;28;20440;-84
2022/10/20 10:39:17;;;;;;;26.23;24.63;;;;;;;;;;5136946;27;20482;-85
2022/10/20 10:42:04;;;;;;;25.70;23.97;;;;;;;;;;5137279;27;20419;-84
2022/10/20 10:44:40;;;;;;;24.03;22.47;;;;;;;;;;5137703;28;20464;-85
2022/10/20 10:47:15;;;;;;;25.83;24.10;;;;;;;;;;5138049;27;20460;-85
2022/10/20 10:49:48;;;;;;;24.57;23.03;;;;;;;;;;5137014;28;20451;-84
2022/10/20 10:52:23;;;;;;;24.40;22.87;;;;;;;;;;5136750;27;20891;-85
2022/10/20 10:54:57;;;;;;;25.63;23.80;;;;;;;;;;5139502;27;20788;-78
2022/10/20 10:57:31;;;;;;;24.97;23.27;;;;;;;;;;5138731;27;20899;-78
2022/10/20 11:00:01;;;;;;;24.87;23.30;;;;;;;;;;5138798;27;20838;-82
2022/10/20 11:02:48;;;;;;;26.30;24.40;;;;;;;;;;5138361;27;20462;-78
2022/10/20 11:05:30;;;;;;;24.80;23.37;;;;;;;;;;5137800;27;20466;-79
2022/10/20 11:08:04;;;;;;;25.10;23.60;;;;;;;;;;5124332;27;20437;-79
2022/10/20 11:10:36;;;;;;;24.97;23.50;;;;;;;;;;5138864;27;20456;-78
2022/10/20 11:13:12;;;;;;;25.40;23.80;;;;;;;;;;5137873;27;20479;-80
2022/10/20 11:15:50;;;;;;;25.10;23.50;;;;;;;;;;5138076;27;20445;-79
2022/10/20 11:18:24;;;;;;;26.20;24.70;;;;;;;;;;5138687;27;20442;-79
2022/10/20 11:20:55;;;;;;;25.60;24.00;;;;;;;;;;5138600;27;20405;-80
2022/10/20 11:23:32;;;;;;;26.63;24.63;;;;;;;;;;5138076;27;20457;-79
2022/10/20 11:26:04;;;;;;;25.93;24.07;;;;;;;;;;5138274;27;20432;-79
2022/10/20 11:28:35;;;;;;;24.90;23.40;;;;;;;;;;5137613;27;20431;-80
2022/10/20 11:31:05;;;;;;;25.47;23.87;;;;;;;;;;5138298;27;20417;-79
2022/10/20 11:33:37;;;;;;;25.57;23.77;;;;;;;;;;5137621;27;20990;-78
2022/10/20 11:36:07;;;;;;;25.17;23.67;;;;;;;;;;5137972;27;20432;-78
2022/10/20 11:38:37;;;;;;;25.03;23.53;;;;;;;;;;5136857;27;20999;-79
2022/10/20 11:41:06;;;;;;;26.37;24.70;;;;;;;;;;5137293;27;20795;-78
2022/10/20 11:43:37;;;;;;;25.10;23.50;;;;;;;;;;5137903;27;20834;-79
2022/10/20 11:46:08;;;;;;;25.47;23.87;;;;;;;;;;5138395;27;20411;-79
2022/10/20 11:48:37;;;;;;;25.27;23.20;;;;;;;;;;5138328;27;20422;-79
2022/10/20 11:51:12;;;;;;;24.77;23.20;;;;;;;;;;5137586;27;20432;-80
2022/10/20 11:53:55;;;;;;;25.67;23.77;;;;;;;;;;5137464;27;20462;-79
2022/10/20 11:56:36;;;;;;;24.17;22.67;;;;;;;;;;5136519;27;20450;-85
2022/10/20 11:59:13;;;;;;;25.67;23.80;;;;;;;;;;5138241;27;20887;-81
2022/10/20 12:01:46;;;;;;;26.30;24.40;;;;;;;;;;5136539;27;20743;-81
2022/10/20 12:04:26;;;;;;;26.00;24.30;;;;;;;;;;5136739;27;20480;-81
2022/10/20 12:07:08;;;;;;;25.20;23.30;;;;;;;;;;5138222;27;20428;-80
2022/10/20 12:09:51;;;;;;;25.20;23.60;;;;;;;;;;5137494;27;20421;-80
2022/10/20 12:12:20;;;;;;;25.80;24.10;;;;;;;;;;5135433;27;20448;-80
2022/10/20 12:14:50;;;;;;;25.37;23.67;;;;;;;;;;5137615;27;20408;-80
2022/10/20 12:17:24;;;;;;;25.43;23.77;;;;;;;;;;5137702;27;20444;-80
2022/10/20 12:19:52;;;;;;;25.77;24.07;;;;;;;;;;5136989;27;20497;-80
2022/10/20 12:22:39;;;;;;;25.70;24.00;;;;;;;;;;5137001;27;20416;-79
2022/10/20 12:25:19;;;;;;;24.53;23.03;;;;;;;;;;5137143;27;20508;-80
2022/10/20 12:27:46;;;;;;;26.03;23.63;;;;;;;;;;5137699;27;20740;-81
2022/10/20 12:30:32;;;;;;;25.53;23.97;;;;;;;;;;5136965;27;20416;-81
2022/10/20 12:33:17;;;;;;;26.07;24.43;;;;;;;;;;5137013;27;20784;-80
2022/10/20 12:36:00;;;;;;;27.27;24.83;;;;;;;;;;5137593;27;20423;-80
2022/10/20 12:38:30;;;;;;;25.60;23.80;;;;;;;;;;5137174;27;20444;-81
2022/10/20 12:40:58;;;;;;;25.30;23.70;;;;;;;;;;5139898;27;20412;-87
2022/10/20 12:43:37;;;;;;;25.17;23.60;;;;;;;;;;5139500;27;20992;-81
2022/10/20 12:46:07;;;;;;;25.73;23.93;;;;;;;;;;5139163;27;20428;-82
2022/10/20 12:48:35;;;;;;;26.77;24.77;;;;;;;;;;5139052;27;20454;-85
2022/10/20 12:51:04;;;;;;;25.67;23.97;;;;;;;;;;5139188;27;20420;-78
2022/10/20 12:53:33;;;;;;;25.40;23.60;;;;;;;;;;5138664;27;20468;-82
2022/10/20 12:56:01;;;;;;;26.87;24.40;;;;;;;;;;5140185;27;20468;-80
2022/10/20 12:58:30;;;;;;;27.03;25.13;;;;;;;;;;5138836;27;20485;-83
2022/10/20 13:01:02;;;;;;;26.60;24.80;;;;;;;;;;5134565;27;20462;-83
2022/10/20 13:03:38;;;;;;;24.30;22.90;;;;;;;;;;5140136;27;20447;-87
2022/10/20 13:06:20;;;;;;;25.77;23.97;;;;;;;;;;5138441;27;20468;-83
2022/10/20 13:09:10;;;;;;;25.50;23.80;;;;;;;;;;5140079;27;20467;-87
2022/10/20 13:11:44;;;;;;;25.27;23.57;;;;;;;;;;5137945;27;20419;-84
2022/10/20 13:14:19;;;;;;;24.80;22.93;;;;;;;;;;5136921;27;20986;-78
2022/10/20 13:16:49;;;;;;;25.00;23.40;;;;;;;;;;5131755;27;20472;-78
2022/10/20 13:19:19;;;;;;;24.27;22.67;;;;;;;;;;5147599;27;20466;-77
2022/10/20 13:21:47;;;;;;;24.80;23.20;;;;;;;;;;5154107;27;20442;-77
2022/10/20 13:24:17;;;;;;;26.30;24.53;;;;;;;;;;5153075;27;20452;-77
2022/10/20 13:26:48;;;;;;;25.67;23.93;;;;;;;;;;5156620;27;20496;-88
2022/10/20 13:29:19;;;;;;;24.97;23.23;;;;;;;;;;5158989;27;20465;-87
2022/10/20 13:31:49;;;;;;;25.43;23.80;;;;;;;;;;5159196;27;20430;-86
2022/10/20 13:34:18;;;;;;;25.23;23.57;;;;;;;;;;5159316;27;20451;-86
2022/10/20 13:36:54;;;;;;;25.40;23.80;;;;;;;;;;5160195;27;20439;-86
2022/10/20 13:39:24;;;;;;;24.70;23.03;;;;;;;;;;5161189;27;20462;-86
2022/10/20 13:41:56;;;;;;;25.37;23.67;;;;;;;;;;5159756;27;20443;-86
2022/10/20 13:44:28;;;;;;;25.30;23.60;;;;;;;;;;5160479;27;20447;-85
2022/10/20 13:47:00;;;;;;;26.93;24.87;;;;;;;;;;5160549;27;20469;-87
2022/10/20 13:49:33;;;;;;;29.00;27.10;;;;;;;;;;5157268;27;20450;-76
2022/10/20 13:52:04;;;;;;;25.90;24.30;;;;;;;;;;5144456;27;20446;-77
2022/10/20 13:54:34;;;;;;;27.53;25.83;;;;;;;;;;5133252;28;20986;-77
2022/10/20 13:57:02;;;;;;;27.47;24.60;;;;;;;;;;5133319;28;21021;-77
2022/10/20 13:59:30;;;;;;;25.60;24.00;;;;;;;;;;5133196;27;20484;-77
2022/10/20 14:01:58;;;;;;;27.23;25.23;;;;;;;;;;5132166;27;20471;-77
2022/10/20 14:04:27;;;;;;;27.33;25.30;;;;;;;;;;5134678;28;20477;-85
2022/10/20 14:06:55;;;;;;;25.97;24.03;;;;;;;;;;5138478;27;20452;-86
2022/10/20 14:09:23;;;;;;;28.07;25.70;;;;;;;;;;5139331;27;20804;-86
2022/10/20 14:11:54;;;;;;;25.70;24.10;;;;;;;;;;5138868;27;20459;-86
2022/10/20 14:14:23;;;;;;;27.13;25.17;;;;;;;;;;5138115;27;20499;-90
2022/10/20 14:16:52;;;;;;;26.30;24.60;;;;;;;;;;5139633;28;20937;-89
2022/10/20 14:19:22;;;;;;;27.83;25.97;;;;;;;;;;5139060;27;20488;-88
2022/10/20 14:21:53;;;;;;;27.00;25.30;;;;;;;;;;5133758;27;20947;-79
2022/10/20 14:24:25;;;;;;;27.17;24.97;;;;;;;;;;5149694;27;20481;-79
2022/10/20 14:26:54;;;;;;;27.67;25.57;;;;;;;;;;5154535;27;20406;-80
2022/10/20 14:29:23;;;;;;;26.07;24.37;;;;;;;;;;5158015;27;20446;-78
2022/10/20 14:31:51;;;;;;;26.70;24.80;;;;;;;;;;5157503;27;20449;-78